createdAt,value
2023-03-14T00:02:05.571Z,2.28
2023-03-14T00:04:33.120Z,1.90
2023-03-14T00:12:19.163Z,1.90
2023-03-14T00:14:52.240Z,2.00
2023-03-14T00:17:19.828Z,1.70
2023-03-14T00:19:48.593Z,1.90
2023-03-14T00:22:18.525Z,1.88
2023-03-14T00:24:48.527Z,1.52
2023-03-14T00:27:15.695Z,1.50
2023-03-14T00:29:45.011Z,1.27
2023-03-14T00:35:10.532Z,1.50
2023-03-14T00:38:01.386Z,1.20
2023-03-14T00:43:14.604Z,1.15
2023-03-14T00:49:03.179Z,1.77
2023-03-14T00:51:34.556Z,1.00
2023-03-14T00:54:02.963Z,1.30
2023-03-14T00:56:40.568Z,1.23
2023-03-14T00:59:12.280Z,1.27
2023-03-14T01:01:53.311Z,0.88
2023-03-14T01:05:04.630Z,1.35
2023-03-14T01:07:46.691Z,1.10
2023-03-14T01:13:00.520Z,1.20
2023-03-14T01:15:37.590Z,1.23
2023-03-14T01:18:14.837Z,1.00
2023-03-14T01:20:46.691Z,1.33
2023-03-14T01:23:20.964Z,1.17
2023-03-14T01:31:27.799Z,1.27
2023-03-14T01:33:59.730Z,1.17
2023-03-14T01:36:36.440Z,1.05
2023-03-14T01:39:26.779Z,0.93
2023-03-14T01:42:03.052Z,1.10
2023-03-14T01:47:47.285Z,1.30
2023-03-14T01:50:19.650Z,0.93
2023-03-14T01:52:52.267Z,1.02
2023-03-14T01:55:34.933Z,0.90
2023-03-14T01:58:07.276Z,1.00
2023-03-14T02:00:38.952Z,0.90
2023-03-14T02:03:39.212Z,0.90
2023-03-14T02:06:14.464Z,0.98
2023-03-14T02:08:56.013Z,1.25
2023-03-14T02:14:44.491Z,0.95
2023-03-14T02:20:31.567Z,1.15
2023-03-14T02:29:05.313Z,1.50
2023-03-14T02:31:51.397Z,1.15
2023-03-14T02:34:18.768Z,1.00
2023-03-14T02:36:58.781Z,1.15
2023-03-14T02:39:38.325Z,1.20
2023-03-14T02:42:08.297Z,1.48
2023-03-14T02:44:38.159Z,1.00
2023-03-14T02:47:05.691Z,0.88
2023-03-14T02:49:39.036Z,1.20
2023-03-14T02:52:15.101Z,1.20
2023-03-14T02:54:44.549Z,1.10
2023-03-14T02:57:47.417Z,1.20
2023-03-14T03:00:24.796Z,1.10
2023-03-14T03:03:05.545Z,1.10
2023-03-14T03:05:34.845Z,1.10
2023-03-14T03:08:16.625Z,1.00
2023-03-14T03:10:43.836Z,1.00
2023-03-14T03:13:14.386Z,1.17
2023-03-14T03:15:42.178Z,1.10
2023-03-14T03:18:13.766Z,1.35
2023-03-14T03:23:29.452Z,1.00
2023-03-14T03:28:39.563Z,0.90
2023-03-14T03:31:31.728Z,1.20
2023-03-14T03:34:04.580Z,1.13
2023-03-14T03:36:43.031Z,1.23
2023-03-14T03:39:13.696Z,1.35
2023-03-14T03:41:43.653Z,0.98
2023-03-14T03:44:15.028Z,0.90
2023-03-14T03:46:42.702Z,1.00
2023-03-14T03:52:01.934Z,1.30
2023-03-14T03:54:30.236Z,1.45
2023-03-14T03:56:58.838Z,1.10
2023-03-14T03:59:44.596Z,0.80
2023-03-14T04:02:13.633Z,1.20
2023-03-14T04:04:48.114Z,0.90
2023-03-14T04:07:19.544Z,1.20
2023-03-14T04:12:30.962Z,1.15
2023-03-14T04:15:00.679Z,1.27
2023-03-14T04:17:28.880Z,1.17
2023-03-14T04:19:59.272Z,1.10
2023-03-14T04:22:25.891Z,0.93
2023-03-14T04:24:52.695Z,1.00
2023-03-14T04:27:21.896Z,1.42
2023-03-14T04:29:56.802Z,1.30
2023-03-14T04:32:28.578Z,1.15
2023-03-14T04:34:56.650Z,1.20
2023-03-14T04:37:26.382Z,0.85
2023-03-14T04:39:54.142Z,1.23
2023-03-14T04:42:25.628Z,1.40
2023-03-14T04:44:52.999Z,1.13
2023-03-14T04:47:28.512Z,0.95
2023-03-14T04:49:56.750Z,1.35
2023-03-14T04:52:36.123Z,1.10
2023-03-14T04:55:08.159Z,1.00
2023-03-14T04:57:39.844Z,1.48
2023-03-14T05:00:16.379Z,1.00
2023-03-14T05:02:43.411Z,1.05
2023-03-14T05:05:10.926Z,1.13
2023-03-14T05:13:06.867Z,0.75
2023-03-14T05:18:25.156Z,1.40
2023-03-14T05:20:59.872Z,1.00
2023-03-14T05:32:07.646Z,1.08
2023-03-14T05:34:45.176Z,0.80
2023-03-14T05:37:14.421Z,1.30
2023-03-14T05:42:23.983Z,0.98
2023-03-14T05:44:52.299Z,0.90
2023-03-14T05:47:24.257Z,0.82
2023-03-14T05:50:04.926Z,1.65
2023-03-14T05:52:34.389Z,1.10
2023-03-14T05:55:03.188Z,0.80
2023-03-14T06:00:32.751Z,0.98
2023-03-14T06:03:06.743Z,0.93
2023-03-14T06:05:44.237Z,0.82
2023-03-14T06:08:21.716Z,0.98
2023-03-14T06:10:51.809Z,0.73
2023-03-14T06:13:23.010Z,0.70
2023-03-14T06:15:53.482Z,0.80
2023-03-14T06:18:29.453Z,1.15
2023-03-14T06:21:00.792Z,1.02
2023-03-14T06:23:42.824Z,1.55
2023-03-14T06:26:12.107Z,0.90
2023-03-14T06:28:50.939Z,1.05
2023-03-14T06:34:29.353Z,0.73
2023-03-14T06:37:37.321Z,0.88
2023-03-14T06:43:23.659Z,0.98
2023-03-14T06:45:52.286Z,0.90
2023-03-14T06:52:10.314Z,0.90
2023-03-14T07:00:54.534Z,0.82
2023-03-14T07:06:16.085Z,1.17
2023-03-14T07:08:56.796Z,0.90
2023-03-14T07:13:50.205Z,0.82
2023-03-14T07:16:17.112Z,0.73
2023-03-14T07:21:32.678Z,0.60
2023-03-14T07:29:31.567Z,0.60
2023-03-14T07:37:32.275Z,0.60
2023-03-14T08:07:59.322Z,0.75
2023-03-14T08:10:27.292Z,0.77
2023-03-14T08:13:38.531Z,0.70
2023-03-14T08:16:24.650Z,0.70
2023-03-14T08:19:48.253Z,1.10
2023-03-14T08:28:27.271Z,1.00
2023-03-14T08:39:22.188Z,1.00
2023-03-14T08:42:03.421Z,0.93
2023-03-14T09:12:43.075Z,0.60
2023-03-14T09:23:30.105Z,0.90
2023-03-14T09:37:18.844Z,0.63
2023-03-14T09:51:24.730Z,0.60
2023-03-14T09:54:06.931Z,0.82
2023-03-14T10:14:07.276Z,0.75
2023-03-14T10:20:09.779Z,0.65
2023-03-14T11:10:42.774Z,0.90
2023-03-14T11:13:47.652Z,1.48
2023-03-14T11:30:50.876Z,1.48
2023-03-14T11:34:15.295Z,2.25
2023-03-14T11:40:29.228Z,8.38
2023-03-14T11:57:04.541Z,1.60
2023-03-14T11:59:57.773Z,1.48
2023-03-14T12:06:35.914Z,1.85
2023-03-14T12:15:26.577Z,0.55
2023-03-14T12:20:51.650Z,0.40
2023-03-14T12:23:18.776Z,0.30
2023-03-14T12:25:45.345Z,0.40
2023-03-14T12:28:32.257Z,0.40
2023-03-14T12:31:33.201Z,0.40
2023-03-14T12:34:44.482Z,0.50
2023-03-14T12:37:53.160Z,0.20
2023-03-14T12:40:39.159Z,0.50
2023-03-14T12:43:36.211Z,0.40
2023-03-14T12:46:36.160Z,0.50
2023-03-14T12:52:04.993Z,0.35
2023-03-14T12:55:19.831Z,0.30
2023-03-14T12:58:13.972Z,0.50
2023-03-14T13:00:59.974Z,0.50
2023-03-14T13:03:48.265Z,0.60
2023-03-14T13:10:01.723Z,0.47
2023-03-14T13:31:42.007Z,0.68
2023-03-14T14:10:00.919Z,0.40
2023-03-14T14:16:25.626Z,0.50
2023-03-14T14:21:48.130Z,0.20
2023-03-14T14:31:09.368Z,0.35
2023-03-14T14:37:00.825Z,0.30
2023-03-14T14:42:26.973Z,0.30
2023-03-14T14:45:12.192Z,0.35
2023-03-14T14:51:02.583Z,0.30
2023-03-14T14:59:37.475Z,0.63
2023-03-14T15:04:50.411Z,0.70
2023-03-14T15:07:36.466Z,0.60
2023-03-14T15:21:07.604Z,1.00
2023-03-14T15:23:40.190Z,1.00
2023-03-14T15:26:22.334Z,0.85
2023-03-14T15:35:38.021Z,0.40
2023-03-14T15:38:27.448Z,0.40
2023-03-14T16:20:06.037Z,0.80
2023-03-14T16:25:32.050Z,0.70
2023-03-14T16:34:46.407Z,0.70
2023-03-14T16:37:24.186Z,0.70
2023-03-14T16:40:11.751Z,0.65
2023-03-14T16:45:28.797Z,0.95
2023-03-14T16:48:02.518Z,0.65
2023-03-14T16:54:06.379Z,0.60
2023-03-14T16:56:35.108Z,0.88
2023-03-14T17:04:53.927Z,0.63
2023-03-14T17:07:22.610Z,0.47
2023-03-14T17:10:07.041Z,0.50
2023-03-14T17:13:04.646Z,0.50
2023-03-14T17:15:38.889Z,0.45
2023-03-14T17:24:44.635Z,0.50
2023-03-14T17:30:02.739Z,0.35
2023-03-14T17:32:33.154Z,0.40
2023-03-14T17:37:46.494Z,0.22
2023-03-14T17:40:33.571Z,0.50
2023-03-14T17:45:58.829Z,0.90
2023-03-14T17:49:06.208Z,1.10
2023-03-14T17:51:42.322Z,1.00
2023-03-14T17:54:18.418Z,1.30
2023-03-14T17:56:50.371Z,1.45
2023-03-14T17:59:17.400Z,1.55
2023-03-14T18:04:38.585Z,1.67
2023-03-14T18:07:09.400Z,1.75
2023-03-14T18:09:41.726Z,1.67
2023-03-14T18:12:37.694Z,1.63
2023-03-14T18:15:15.857Z,1.30
2023-03-14T18:26:20.348Z,2.10
2023-03-14T18:31:37.960Z,3.03
2023-03-14T18:34:05.832Z,1.45
2023-03-14T18:42:16.909Z,1.95
2023-03-14T18:44:45.534Z,1.60
2023-03-14T18:47:18.629Z,1.52
2023-03-14T18:50:18.585Z,1.85
2023-03-14T18:52:45.434Z,2.40
2023-03-14T18:58:03.324Z,2.17
2023-03-14T19:00:33.582Z,2.63
2023-03-14T19:13:49.364Z,3.08
2023-03-14T19:16:29.154Z,2.53
2023-03-14T19:19:14.525Z,2.95
2023-03-14T19:21:42.615Z,3.80
2023-03-14T19:24:32.031Z,3.42
2023-03-14T19:38:50.589Z,4.75
2023-03-14T19:41:40.696Z,3.72
2023-03-14T19:44:14.004Z,3.88
2023-03-14T19:55:18.827Z,4.22
2023-03-14T20:01:02.601Z,4.18
2023-03-14T20:03:42.738Z,4.35
2023-03-14T20:09:30.832Z,4.03
2023-03-14T20:20:26.338Z,4.45
2023-03-14T20:22:54.457Z,3.85
2023-03-14T20:25:36.124Z,4.10
2023-03-14T20:28:05.580Z,3.88
2023-03-14T20:30:49.128Z,4.03
2023-03-14T20:36:01.694Z,4.63
2023-03-14T20:38:31.382Z,3.90
2023-03-14T20:43:50.907Z,4.28
2023-03-14T20:46:32.279Z,4.13
2023-03-14T20:49:08.146Z,4.10
2023-03-14T20:51:48.560Z,4.30
2023-03-14T20:54:21.275Z,4.45
2023-03-14T20:56:54.100Z,4.00
2023-03-14T21:02:16.688Z,4.28
2023-03-14T21:04:52.350Z,4.70
2023-03-14T21:07:24.006Z,4.30
2023-03-14T21:12:51.213Z,2.72
2023-03-14T21:21:13.349Z,3.88
2023-03-14T21:34:33.032Z,2.95
2023-03-14T21:37:01.309Z,3.88
2023-03-14T21:42:56.717Z,3.15
2023-03-14T21:48:28.554Z,3.10
2023-03-14T21:51:35.959Z,4.30
2023-03-14T21:54:49.471Z,4.68
2023-03-14T21:57:36.046Z,4.25
2023-03-14T22:00:09.046Z,4.22
2023-03-14T22:02:36.895Z,3.90
2023-03-14T22:05:26.516Z,4.53
2023-03-14T22:08:10.457Z,4.20
2023-03-14T22:14:05.349Z,4.65
2023-03-14T22:16:36.648Z,4.95
2023-03-14T22:19:11.386Z,4.13
2023-03-14T22:21:43.901Z,4.00
2023-03-14T22:24:10.653Z,3.55
2023-03-14T22:26:38.911Z,4.35
2023-03-14T22:29:06.131Z,3.17
2023-03-14T22:31:41.731Z,3.38
2023-03-14T22:34:19.113Z,3.63
2023-03-14T22:36:46.525Z,3.40
2023-03-14T22:39:28.956Z,3.80
2023-03-14T22:41:57.665Z,3.38
2023-03-14T22:44:35.064Z,3.47
2023-03-14T22:47:06.886Z,4.00
2023-03-14T22:49:42.085Z,4.00
2023-03-14T22:52:16.483Z,3.80
2023-03-14T22:54:47.370Z,4.30
2023-03-14T22:57:16.700Z,3.58
2023-03-14T22:59:49.748Z,4.68
2023-03-14T23:02:19.143Z,4.15
2023-03-14T23:07:30.492Z,4.57
2023-03-14T23:10:02.105Z,4.65
2023-03-14T23:12:30.492Z,4.22
2023-03-14T23:15:06.118Z,4.95
2023-03-14T23:17:36.315Z,5.40
2023-03-14T23:23:01.270Z,4.65
2023-03-14T23:25:52.034Z,4.68
2023-03-14T23:28:31.101Z,4.72
2023-03-14T23:31:00.510Z,3.72
2023-03-14T23:36:23.308Z,4.28
2023-03-14T23:38:54.075Z,4.75
2023-03-14T23:46:46.200Z,4.00
2023-03-14T23:55:03.884Z,4.20
